createdAt,value
2018-06-24T00:01:01.657Z,13.60
2018-06-24T00:03:29.526Z,13.60
2018-06-24T00:05:57.438Z,13.70
2018-06-24T00:08:26.194Z,13.70
2018-06-24T00:10:54.132Z,13.70
2018-06-24T00:15:49.985Z,13.60
2018-06-24T00:18:17.867Z,13.60
2018-06-24T00:20:45.797Z,13.70
2018-06-24T00:25:41.434Z,13.60
2018-06-24T00:28:09.334Z,13.60
2018-06-24T00:30:37.210Z,13.60
2018-06-24T00:33:05.153Z,13.60
2018-06-24T00:35:33.447Z,13.70
2018-06-24T00:38:01.330Z,13.70
2018-06-24T00:40:29.345Z,13.70
2018-06-24T00:45:25.019Z,13.80
2018-06-24T00:50:20.695Z,13.70
2018-06-24T00:55:16.379Z,13.80
2018-06-24T00:57:44.251Z,13.70
2018-06-24T01:00:14.598Z,13.70
2018-06-24T01:02:42.518Z,13.80
2018-06-24T01:05:11.485Z,13.80
2018-06-24T01:10:08.046Z,13.80
2018-06-24T01:12:36.007Z,13.80
2018-06-24T01:15:04.258Z,13.70
2018-06-24T01:17:32.118Z,13.70
2018-06-24T01:20:02.544Z,13.70
2018-06-24T01:22:30.434Z,13.70
2018-06-24T01:24:58.901Z,13.70
2018-06-24T01:27:27.312Z,13.80
2018-06-24T01:29:55.218Z,13.70
2018-06-24T01:32:23.842Z,13.70
2018-06-24T01:34:53.560Z,13.80
2018-06-24T01:37:21.582Z,13.80
2018-06-24T01:39:49.467Z,13.80
2018-06-24T01:42:17.358Z,13.80
2018-06-24T01:44:45.301Z,13.80
2018-06-24T01:47:13.193Z,13.90
2018-06-24T01:49:41.076Z,13.80
2018-06-24T01:52:09.809Z,13.80
2018-06-24T01:54:37.725Z,13.80
2018-06-24T01:57:05.747Z,13.90
2018-06-24T01:59:33.970Z,13.80
2018-06-24T02:04:29.804Z,13.90
2018-06-24T02:09:25.444Z,13.90
2018-06-24T02:11:53.334Z,13.90
2018-06-24T02:14:22.197Z,13.90
2018-06-24T02:19:17.807Z,13.90
2018-06-24T02:21:45.657Z,13.90
2018-06-24T02:24:13.709Z,13.90
2018-06-24T02:26:41.604Z,13.80
2018-06-24T02:29:09.454Z,13.80
2018-06-24T02:31:37.551Z,13.80
2018-06-24T02:36:34.612Z,13.90
2018-06-24T02:39:04.631Z,13.80
2018-06-24T02:41:32.559Z,13.80
2018-06-24T02:44:00.584Z,13.80
2018-06-24T02:48:56.286Z,13.70
2018-06-24T02:51:24.163Z,13.70
2018-06-24T02:53:52.018Z,13.70
2018-06-24T02:56:19.922Z,13.60
2018-06-24T02:58:47.813Z,13.70
2018-06-24T03:01:15.684Z,13.70
2018-06-24T03:03:44.569Z,13.70
2018-06-24T03:06:12.471Z,13.70
2018-06-24T03:08:40.444Z,13.70
2018-06-24T03:11:08.322Z,13.70
2018-06-24T03:13:36.176Z,13.70
2018-06-24T03:16:04.292Z,13.80
2018-06-24T03:20:59.992Z,13.70
2018-06-24T03:23:27.863Z,13.70
2018-06-24T03:25:55.763Z,13.70
2018-06-24T03:30:51.711Z,13.70
2018-06-24T03:33:19.804Z,13.60
2018-06-24T03:35:47.698Z,13.70
2018-06-24T03:38:15.655Z,13.70
2018-06-24T03:40:43.544Z,13.70
2018-06-24T03:43:11.726Z,13.60
2018-06-24T03:45:39.595Z,13.70
2018-06-24T03:48:07.471Z,13.60
2018-06-24T03:50:35.326Z,13.70
2018-06-24T03:53:03.224Z,13.70
2018-06-24T03:55:31.063Z,13.70
2018-06-24T03:57:59.014Z,13.70
2018-06-24T04:00:26.879Z,13.60
2018-06-24T04:02:54.775Z,13.60
2018-06-24T04:05:22.639Z,13.60
2018-06-24T04:07:50.831Z,13.60
2018-06-24T04:10:18.752Z,13.60
2018-06-24T04:12:46.664Z,13.50
2018-06-24T04:17:42.344Z,13.60
2018-06-24T04:20:10.311Z,13.60
2018-06-24T04:22:38.170Z,13.70
2018-06-24T04:25:06.497Z,13.70
2018-06-24T04:30:02.177Z,13.80
2018-06-24T04:32:30.146Z,13.90
2018-06-24T04:34:58.186Z,13.90
2018-06-24T04:37:26.056Z,14.00
2018-06-24T04:42:21.666Z,13.90
2018-06-24T04:44:49.553Z,13.90
2018-06-24T04:49:45.858Z,13.80
2018-06-24T04:52:14.792Z,13.90
2018-06-24T04:54:42.692Z,14.00
2018-06-24T04:57:10.566Z,13.90
2018-06-24T04:59:38.430Z,13.90
2018-06-24T05:02:06.498Z,14.00
2018-06-24T05:04:34.367Z,13.90
2018-06-24T05:07:02.613Z,13.90
2018-06-24T05:09:31.014Z,13.90
2018-06-24T05:11:58.913Z,13.90
2018-06-24T05:14:26.801Z,13.90
2018-06-24T05:16:54.710Z,14.00
2018-06-24T05:19:22.645Z,14.00
2018-06-24T05:21:50.510Z,14.00
2018-06-24T05:24:18.752Z,14.00
2018-06-24T05:26:46.612Z,14.00
2018-06-24T05:29:15.348Z,14.10
2018-06-24T05:31:43.236Z,14.20
2018-06-24T05:34:11.124Z,14.20
2018-06-24T05:41:42.438Z,14.10
2018-06-24T05:44:10.623Z,14.20
2018-06-24T05:49:06.571Z,14.10
2018-06-24T05:51:34.492Z,14.10
2018-06-24T05:54:02.355Z,14.10
2018-06-24T05:56:30.270Z,14.00
2018-06-24T06:01:37.346Z,13.90
2018-06-24T06:04:05.543Z,14.00
2018-06-24T06:06:33.426Z,14.10
2018-06-24T06:09:01.355Z,14.10
2018-06-24T06:11:29.271Z,14.10
2018-06-24T06:13:57.118Z,14.10
2018-06-24T06:16:25.151Z,14.20
2018-06-24T06:18:53.959Z,14.30
2018-06-24T06:21:21.857Z,14.30
2018-06-24T06:23:49.726Z,14.30
2018-06-24T06:26:17.934Z,14.30
2018-06-24T06:28:45.830Z,14.40
2018-06-24T06:31:13.778Z,14.40
2018-06-24T06:33:41.709Z,14.40
2018-06-24T06:36:09.611Z,14.60
2018-06-24T06:38:38.053Z,14.70
2018-06-24T06:41:06.678Z,14.70
2018-06-24T06:43:34.632Z,14.70
2018-06-24T06:46:07.458Z,14.70
2018-06-24T06:48:35.376Z,14.50
2018-06-24T06:51:03.357Z,14.40
2018-06-24T06:53:31.696Z,14.50
2018-06-24T06:55:59.599Z,14.60
2018-06-24T06:58:28.013Z,14.60
2018-06-24T07:00:55.924Z,14.70
2018-06-24T07:03:25.959Z,14.70
2018-06-24T07:05:54.203Z,14.70
2018-06-24T07:08:22.141Z,14.80
2018-06-24T07:10:49.999Z,14.70
2018-06-24T07:13:17.876Z,14.60
2018-06-24T07:15:45.782Z,14.80
2018-06-24T07:18:16.404Z,15.00
2018-06-24T07:20:46.785Z,15.10
2018-06-24T07:23:17.402Z,15.30
2018-06-24T07:25:45.718Z,15.40
2018-06-24T07:28:13.684Z,15.60
2018-06-24T07:30:43.532Z,15.70
2018-06-24T07:33:13.291Z,15.80
2018-06-24T07:38:11.778Z,15.60
2018-06-24T07:40:40.933Z,15.60
2018-06-24T07:43:09.036Z,15.60
2018-06-24T07:45:40.256Z,15.60
2018-06-24T07:48:11.746Z,15.50
2018-06-24T07:50:47.035Z,15.50
2018-06-24T07:55:48.776Z,15.40
2018-06-24T07:58:18.744Z,15.40
2018-06-24T08:00:48.958Z,15.40
2018-06-24T08:05:47.902Z,15.40
2018-06-24T08:08:17.598Z,15.40
2018-06-24T08:10:47.011Z,15.60
2018-06-24T08:13:16.512Z,15.70
2018-06-24T08:15:46.771Z,15.80
2018-06-24T08:18:16.958Z,15.90
2018-06-24T08:20:45.844Z,16.00
2018-06-24T08:30:42.640Z,16.20
2018-06-24T08:33:11.898Z,16.10
2018-06-24T08:38:08.637Z,15.90
2018-06-24T08:40:39.495Z,15.80
2018-06-24T08:43:07.702Z,15.60
2018-06-24T08:45:36.496Z,15.50
2018-06-24T08:53:00.953Z,15.40
2018-06-24T08:55:29.435Z,15.50
2018-06-24T08:57:58.107Z,15.60
2018-06-24T09:02:55.534Z,15.80
2018-06-24T09:05:26.395Z,16.00
2018-06-24T09:07:55.783Z,16.20
2018-06-24T09:10:24.385Z,16.30
2018-06-24T09:12:53.616Z,16.40
2018-06-24T09:15:23.197Z,16.50
2018-06-24T09:17:53.040Z,16.40
2018-06-24T09:22:52.165Z,16.20
2018-06-24T09:25:21.498Z,16.20
2018-06-24T09:27:50.732Z,16.10
2018-06-24T09:30:21.263Z,16.20
2018-06-24T09:32:50.226Z,16.30
2018-06-24T09:35:18.747Z,16.40
2018-06-24T09:42:45.324Z,16.50
2018-06-24T09:50:15.830Z,17.00
2018-06-24T09:52:46.220Z,17.00
2018-06-24T09:55:16.831Z,16.90
2018-06-24T10:00:23.964Z,17.20
2018-06-24T10:02:53.363Z,17.30
2018-06-24T10:05:23.459Z,17.50
2018-06-24T10:07:55.510Z,17.50
2018-06-24T10:10:23.809Z,17.60
2018-06-24T10:12:53.431Z,17.60
2018-06-24T10:15:22.107Z,17.50
2018-06-24T10:17:51.945Z,17.30
2018-06-24T10:22:52.252Z,17.10
2018-06-24T10:25:20.912Z,16.90
2018-06-24T10:27:50.237Z,17.00
2018-06-24T10:30:21.002Z,16.90
2018-06-24T10:35:21.146Z,17.10
2018-06-24T10:37:51.222Z,17.10
2018-06-24T10:40:22.198Z,17.20
2018-06-24T10:42:51.381Z,17.20
2018-06-24T10:45:21.578Z,17.20
2018-06-24T10:50:24.393Z,17.50
2018-06-24T10:57:51.035Z,17.70
2018-06-24T11:00:19.976Z,17.60
2018-06-24T11:02:47.999Z,17.80
2018-06-24T11:05:19.421Z,18.00
2018-06-24T11:07:49.727Z,18.10
2018-06-24T11:10:19.682Z,18.10
2018-06-24T11:12:50.804Z,18.10
2018-06-24T11:15:21.333Z,18.10
2018-06-24T11:17:52.668Z,18.10
2018-06-24T11:20:23.711Z,18.10
2018-06-24T11:22:54.578Z,18.10
2018-06-24T11:25:23.754Z,18.10
2018-06-24T11:27:53.719Z,18.10
2018-06-24T11:30:24.509Z,18.00
2018-06-24T11:32:55.452Z,18.10
2018-06-24T11:37:57.871Z,18.00
2018-06-24T11:40:28.590Z,18.10
2018-06-24T11:42:57.592Z,18.10
2018-06-24T11:45:26.289Z,18.00
2018-06-24T11:47:56.534Z,17.90
2018-06-24T11:52:54.631Z,18.10
2018-06-24T11:55:24.554Z,18.10
2018-06-24T11:57:55.611Z,18.20
2018-06-24T12:00:25.114Z,18.20
2018-06-24T12:02:56.417Z,18.30
2018-06-24T12:05:27.509Z,18.30
2018-06-24T12:07:59.016Z,18.50
2018-06-24T12:10:31.121Z,18.50
2018-06-24T12:12:59.719Z,18.50
2018-06-24T12:15:32.104Z,18.80
2018-06-24T12:18:02.825Z,18.70
2018-06-24T12:20:34.785Z,18.50
2018-06-24T12:23:05.634Z,18.50
2018-06-24T12:28:06.110Z,18.30
2018-06-24T12:30:36.389Z,18.30
2018-06-24T12:33:07.969Z,18.30
2018-06-24T12:35:38.707Z,18.30
2018-06-24T12:38:09.402Z,18.30
2018-06-24T12:43:08.888Z,18.10
2018-06-24T12:48:08.245Z,18.10
2018-06-24T12:50:38.028Z,18.10
2018-06-24T12:53:06.553Z,18.10
2018-06-24T12:55:35.936Z,18.10
2018-06-24T13:00:36.226Z,17.90
2018-06-24T13:03:04.494Z,18.00
2018-06-24T13:05:33.687Z,17.90
2018-06-24T13:08:03.503Z,17.90
2018-06-24T13:13:02.319Z,17.90
2018-06-24T13:15:31.393Z,17.90
2018-06-24T13:22:59.621Z,18.30
2018-06-24T13:27:56.691Z,18.70
2018-06-24T13:30:27.759Z,18.90
2018-06-24T13:32:57.938Z,19.00
2018-06-24T13:35:29.032Z,19.10
2018-06-24T13:37:58.926Z,19.30
2018-06-24T13:40:28.713Z,19.50
2018-06-24T13:42:57.352Z,19.50
2018-06-24T13:45:27.496Z,19.50
2018-06-24T13:47:56.164Z,19.60
2018-06-24T13:50:27.300Z,19.70
2018-06-24T13:52:56.618Z,19.70
2018-06-24T13:55:24.792Z,19.70
2018-06-24T13:57:53.312Z,19.70
2018-06-24T14:00:24.742Z,19.70
2018-06-24T14:02:53.090Z,19.50
2018-06-24T14:05:22.910Z,19.40
2018-06-24T14:07:52.399Z,19.60
2018-06-24T14:15:17.804Z,19.60
2018-06-24T14:17:46.257Z,20.00
2018-06-24T14:20:14.343Z,20.20
2018-06-24T14:22:43.251Z,20.40
2018-06-24T14:25:11.917Z,20.40
2018-06-24T14:27:39.864Z,20.30
2018-06-24T14:30:08.451Z,20.00
2018-06-24T14:32:36.707Z,19.80
2018-06-24T14:35:06.122Z,19.70
2018-06-24T14:40:04.445Z,19.50
2018-06-24T14:42:33.509Z,19.50
2018-06-24T14:45:02.668Z,19.40
2018-06-24T14:47:31.620Z,19.40
2018-06-24T14:50:00.276Z,19.20
2018-06-24T14:52:29.994Z,19.10
2018-06-24T14:55:00.412Z,19.10
2018-06-24T15:00:01.273Z,19.00
2018-06-24T15:02:29.900Z,19.10
2018-06-24T15:05:00.078Z,19.10
2018-06-24T15:07:30.338Z,19.00
2018-06-24T15:12:33.051Z,18.90
2018-06-24T15:15:02.539Z,18.90
2018-06-24T15:17:32.861Z,18.90
2018-06-24T15:20:02.905Z,19.00
2018-06-24T15:25:01.938Z,19.20
2018-06-24T15:27:33.192Z,19.30
2018-06-24T15:30:02.850Z,19.40
2018-06-24T15:35:06.993Z,19.50
2018-06-24T15:37:38.966Z,19.40
2018-06-24T15:40:08.557Z,19.40
2018-06-24T15:45:09.114Z,19.40
2018-06-24T15:47:39.390Z,19.40
2018-06-24T15:50:10.108Z,19.40
2018-06-24T15:52:39.002Z,19.40
2018-06-24T15:57:37.698Z,19.30
2018-06-24T16:05:10.148Z,19.10
2018-06-24T16:07:44.833Z,19.10
2018-06-24T16:10:15.163Z,19.00
2018-06-24T16:12:45.531Z,19.00
2018-06-24T16:15:17.303Z,19.00
2018-06-24T16:17:50.383Z,18.90
2018-06-24T16:25:23.296Z,19.10
2018-06-24T16:27:54.018Z,19.00
2018-06-24T16:30:25.872Z,19.10
2018-06-24T16:32:56.367Z,19.00
2018-06-24T16:35:26.791Z,19.10
2018-06-24T16:37:56.286Z,19.10
2018-06-24T16:40:28.521Z,19.10
2018-06-24T16:42:58.041Z,19.10
2018-06-24T16:45:26.840Z,18.90
2018-06-24T16:50:26.058Z,18.70
2018-06-24T16:57:54.961Z,18.60
2018-06-24T17:00:24.569Z,18.60
2018-06-24T17:02:55.750Z,18.60
2018-06-24T17:05:24.734Z,18.60
2018-06-24T17:10:21.659Z,18.60
2018-06-24T17:12:51.745Z,18.60
2018-06-24T17:15:19.810Z,18.60
2018-06-24T17:17:50.390Z,18.60
2018-06-24T17:20:19.063Z,18.60
2018-06-24T17:22:47.151Z,18.60
2018-06-24T17:25:16.535Z,18.50
2018-06-24T17:27:48.250Z,18.50
2018-06-24T17:30:17.296Z,18.60
2018-06-24T17:32:48.198Z,18.50
2018-06-24T17:35:19.550Z,18.40
2018-06-24T17:40:17.573Z,18.50
2018-06-24T17:42:46.506Z,18.50
2018-06-24T17:45:15.892Z,18.60
2018-06-24T17:47:45.652Z,18.50
2018-06-24T17:50:13.661Z,18.60
2018-06-24T17:52:42.975Z,18.60
2018-06-24T17:55:11.325Z,18.50
2018-06-24T17:57:40.788Z,18.40
2018-06-24T18:00:10.678Z,18.30
2018-06-24T18:02:38.802Z,18.30
2018-06-24T18:05:08.253Z,18.20
2018-06-24T18:07:38.626Z,18.00
2018-06-24T18:10:08.098Z,18.00
2018-06-24T18:12:36.836Z,17.90
2018-06-24T18:15:05.685Z,17.70
2018-06-24T18:20:05.179Z,17.50
2018-06-24T18:22:34.052Z,17.60
2018-06-24T18:25:03.626Z,17.60
2018-06-24T18:27:33.266Z,17.60
2018-06-24T18:30:01.515Z,17.50
2018-06-24T18:32:30.247Z,17.40
2018-06-24T18:34:59.256Z,17.40
2018-06-24T18:39:55.694Z,17.30
2018-06-24T18:42:23.905Z,17.30
2018-06-24T18:44:52.145Z,17.20
2018-06-24T18:47:20.963Z,17.20
2018-06-24T18:49:52.002Z,17.10
2018-06-24T18:52:20.629Z,17.20
2018-06-24T18:54:49.176Z,17.20
2018-06-24T18:57:18.374Z,17.20
2018-06-24T18:59:47.929Z,17.20
2018-06-24T19:04:46.238Z,17.10
2018-06-24T19:12:11.575Z,17.00
2018-06-24T19:14:41.938Z,17.00
2018-06-24T19:17:11.485Z,16.90
2018-06-24T19:19:39.609Z,16.90
2018-06-24T19:22:07.751Z,16.80
2018-06-24T19:24:36.912Z,16.70
2018-06-24T19:27:07.300Z,16.60
2018-06-24T19:29:38.258Z,16.60
2018-06-24T19:32:09.908Z,16.70
2018-06-24T19:34:38.669Z,16.60
2018-06-24T19:37:07.294Z,16.60
2018-06-24T19:39:35.865Z,16.60
2018-06-24T19:42:03.813Z,16.50
2018-06-24T19:44:32.200Z,16.50
2018-06-24T19:47:00.103Z,16.40
2018-06-24T19:49:28.099Z,16.30
2018-06-24T19:51:56.106Z,16.10
2018-06-24T19:54:24.025Z,16.00
2018-06-24T19:56:52.140Z,15.80
2018-06-24T20:01:49.322Z,15.60
2018-06-24T20:09:13.760Z,15.10
2018-06-24T20:11:41.651Z,15.10
2018-06-24T20:14:09.582Z,15.00
2018-06-24T20:16:37.608Z,15.00
2018-06-24T20:28:57.882Z,14.90
2018-06-24T20:31:25.782Z,14.90
2018-06-24T20:33:55.038Z,14.90
2018-06-24T20:36:22.967Z,14.90
2018-06-24T20:38:51.018Z,14.90
2018-06-24T20:41:19.101Z,14.90
2018-06-24T20:43:46.985Z,14.90
2018-06-24T20:46:14.883Z,14.90
2018-06-24T20:48:42.734Z,14.90
2018-06-24T20:51:10.603Z,14.90
2018-06-24T20:53:38.566Z,14.90
2018-06-24T20:56:06.532Z,14.90
2018-06-24T20:58:34.427Z,14.90
2018-06-24T21:01:02.613Z,14.90
2018-06-24T21:03:31.125Z,14.80
2018-06-24T21:05:59.038Z,14.80
2018-06-24T21:08:26.968Z,14.50
2018-06-24T21:10:54.926Z,14.40
2018-06-24T21:15:50.986Z,14.10
2018-06-24T21:18:18.823Z,13.90
2018-06-24T21:20:46.703Z,13.80
2018-06-24T21:23:15.383Z,13.80
2018-06-24T21:28:11.093Z,13.70
2018-06-24T21:30:39.006Z,13.70
2018-06-24T21:33:06.928Z,13.70
2018-06-24T21:35:34.940Z,13.70
2018-06-24T21:38:03.080Z,13.70
2018-06-24T21:45:27.456Z,13.70
2018-06-24T21:47:55.380Z,13.60
2018-06-24T21:50:23.642Z,13.70
2018-06-24T21:52:52.099Z,13.70
2018-06-24T21:55:19.968Z,13.70
2018-06-24T21:57:47.843Z,13.60
2018-06-24T22:00:15.712Z,13.60
2018-06-24T22:02:43.820Z,13.50
2018-06-24T22:05:11.747Z,13.50
2018-06-24T22:10:08.564Z,13.50
2018-06-24T22:12:36.477Z,13.40
2018-06-24T22:15:04.485Z,13.30
2018-06-24T22:17:32.408Z,13.40
2018-06-24T22:20:00.414Z,13.50
2018-06-24T22:22:28.355Z,13.50
2018-06-24T22:27:24.201Z,13.40
2018-06-24T22:29:52.093Z,13.40
2018-06-24T22:32:21.177Z,13.40
2018-06-24T22:34:49.113Z,13.40
2018-06-24T22:37:17.299Z,13.40
2018-06-24T22:39:45.192Z,13.50
2018-06-24T22:44:41.440Z,13.60
2018-06-24T22:47:09.396Z,13.70
2018-06-24T22:52:05.246Z,13.60
2018-06-24T22:57:00.878Z,13.60
2018-06-24T23:02:02.143Z,13.50
2018-06-24T23:04:30.037Z,13.50
2018-06-24T23:06:57.918Z,13.50
2018-06-24T23:09:26.750Z,13.40
2018-06-24T23:11:54.760Z,13.40
2018-06-24T23:14:22.664Z,13.40
2018-06-24T23:16:50.773Z,13.50
2018-06-24T23:19:18.658Z,13.50
2018-06-24T23:21:46.542Z,13.50
2018-06-24T23:24:14.383Z,13.40
2018-06-24T23:26:42.325Z,13.40
2018-06-24T23:29:10.446Z,13.30
2018-06-24T23:31:38.306Z,13.30
2018-06-24T23:34:07.161Z,13.30
2018-06-24T23:36:35.209Z,13.30
2018-06-24T23:39:05.558Z,13.30
2018-06-24T23:46:28.900Z,13.30
2018-06-24T23:48:56.831Z,13.40
2018-06-24T23:51:24.699Z,13.30
2018-06-24T23:53:52.649Z,13.40
2018-06-24T23:56:20.555Z,13.30
2018-06-24T23:58:48.440Z,13.30
